createdAt,value
2019-04-30T00:02:01.208Z,10.60
2019-04-30T00:04:42.376Z,10.70
2019-04-30T00:07:19.056Z,10.70
2019-04-30T00:09:53.947Z,10.70
2019-04-30T00:12:31.000Z,10.80
2019-04-30T00:15:06.212Z,10.80
2019-04-30T00:17:40.443Z,10.80
2019-04-30T00:20:15.088Z,10.80
2019-04-30T00:22:50.794Z,10.80
2019-04-30T00:25:28.612Z,10.80
2019-04-30T00:28:07.657Z,10.80
2019-04-30T00:30:39.333Z,10.80
2019-04-30T00:33:21.659Z,10.80
2019-04-30T00:35:55.212Z,10.90
2019-04-30T00:38:29.532Z,10.80
2019-04-30T00:41:08.561Z,10.90
2019-04-30T00:43:46.412Z,10.90
2019-04-30T00:46:17.244Z,10.90
2019-04-30T00:48:51.107Z,10.90
2019-04-30T00:51:26.190Z,10.80
2019-04-30T00:53:59.597Z,10.80
2019-04-30T00:56:35.370Z,10.90
2019-04-30T00:59:10.664Z,10.90
2019-04-30T01:02:27.912Z,10.90
2019-04-30T01:05:05.062Z,10.90
2019-04-30T01:07:33.311Z,10.90
2019-04-30T01:10:11.297Z,10.80
2019-04-30T01:12:49.063Z,10.90
2019-04-30T01:15:21.905Z,10.80
2019-04-30T01:17:56.170Z,10.90
2019-04-30T01:20:32.850Z,10.80
2019-04-30T01:23:08.013Z,10.80
2019-04-30T01:25:43.147Z,10.80
2019-04-30T01:28:23.114Z,10.80
2019-04-30T01:30:58.683Z,10.80
2019-04-30T01:33:34.720Z,10.80
2019-04-30T01:36:13.234Z,10.80
2019-04-30T01:38:44.850Z,10.70
2019-04-30T01:41:20.271Z,10.70
2019-04-30T01:43:55.631Z,10.70
2019-04-30T01:46:30.119Z,10.70
2019-04-30T01:49:03.588Z,10.80
2019-04-30T01:51:38.663Z,10.80
2019-04-30T01:54:13.696Z,10.70
2019-04-30T01:57:10.882Z,10.80
2019-04-30T02:00:03.222Z,10.70
2019-04-30T02:02:41.559Z,10.70
2019-04-30T02:05:18.763Z,10.70
2019-04-30T02:07:52.855Z,10.70
2019-04-30T02:10:28.540Z,10.70
2019-04-30T02:13:02.498Z,10.70
2019-04-30T02:15:36.506Z,10.60
2019-04-30T02:18:09.860Z,10.60
2019-04-30T02:20:43.606Z,10.70
2019-04-30T02:23:19.411Z,10.60
2019-04-30T02:25:52.423Z,10.60
2019-04-30T02:28:26.435Z,10.60
2019-04-30T02:31:00.686Z,10.60
2019-04-30T02:33:36.951Z,10.60
2019-04-30T02:36:30.025Z,10.50
2019-04-30T02:39:04.705Z,10.50
2019-04-30T02:41:41.340Z,10.50
2019-04-30T02:44:19.602Z,10.50
2019-04-30T02:46:56.149Z,10.50
2019-04-30T02:49:32.203Z,10.50
2019-04-30T02:52:09.242Z,10.50
2019-04-30T02:54:45.793Z,10.50
2019-04-30T02:57:22.868Z,10.50
2019-04-30T03:00:20.744Z,10.50
2019-04-30T03:02:55.974Z,10.50
2019-04-30T03:05:31.086Z,10.50
2019-04-30T03:08:06.233Z,10.50
2019-04-30T03:10:41.795Z,10.40
2019-04-30T03:13:19.953Z,10.40
2019-04-30T03:15:52.602Z,10.40
2019-04-30T03:18:31.327Z,10.40
2019-04-30T03:21:12.311Z,10.30
2019-04-30T03:23:46.848Z,10.30
2019-04-30T03:26:21.732Z,10.30
2019-04-30T03:28:56.071Z,10.30
2019-04-30T03:31:32.433Z,10.30
2019-04-30T03:34:12.421Z,10.30
2019-04-30T03:36:43.620Z,10.30
2019-04-30T03:39:19.945Z,10.20
2019-04-30T03:41:53.710Z,10.20
2019-04-30T03:44:32.381Z,10.20
2019-04-30T03:47:06.850Z,10.20
2019-04-30T03:49:41.022Z,10.20
2019-04-30T03:52:14.439Z,10.20
2019-04-30T03:54:49.440Z,10.10
2019-04-30T03:57:23.577Z,10.10
2019-04-30T03:59:59.283Z,10.10
2019-04-30T04:02:44.569Z,10.10
2019-04-30T04:05:52.917Z,10.00
2019-04-30T04:08:39.088Z,10.00
2019-04-30T04:11:20.368Z,10.00
2019-04-30T04:13:54.302Z,10.00
2019-04-30T04:16:29.357Z,9.90
2019-04-30T04:19:02.708Z,10.00
2019-04-30T04:21:41.437Z,9.90
2019-04-30T04:24:15.345Z,9.90
2019-04-30T04:26:50.502Z,10.00
2019-04-30T04:29:23.937Z,10.00
2019-04-30T04:32:00.731Z,9.90
2019-04-30T04:34:33.567Z,9.90
2019-04-30T04:37:10.096Z,9.90
2019-04-30T04:39:43.002Z,9.90
2019-04-30T04:42:19.108Z,9.90
2019-04-30T04:44:52.586Z,9.90
2019-04-30T04:47:26.174Z,9.90
2019-04-30T04:50:00.784Z,9.90
2019-04-30T04:52:34.595Z,9.90
2019-04-30T04:55:09.787Z,9.90
2019-04-30T04:57:43.314Z,9.90
2019-04-30T05:00:22.861Z,9.90
2019-04-30T05:03:06.002Z,9.90
2019-04-30T05:05:49.945Z,9.90
2019-04-30T05:08:28.560Z,9.90
2019-04-30T05:11:04.212Z,9.90
2019-04-30T05:13:39.869Z,9.90
2019-04-30T05:16:18.907Z,10.00
2019-04-30T05:19:01.163Z,10.00
2019-04-30T05:21:42.697Z,10.00
2019-04-30T05:24:14.511Z,10.10
2019-04-30T05:26:48.776Z,10.10
2019-04-30T05:29:22.260Z,10.10
2019-04-30T05:31:58.608Z,10.10
2019-04-30T05:34:32.309Z,10.20
2019-04-30T05:37:11.339Z,10.20
2019-04-30T05:39:48.941Z,10.20
2019-04-30T05:42:30.964Z,10.20
2019-04-30T05:45:04.829Z,10.30
2019-04-30T05:47:42.809Z,10.40
2019-04-30T05:50:19.771Z,10.60
2019-04-30T05:52:59.249Z,10.70
2019-04-30T05:55:32.746Z,10.80
2019-04-30T05:58:06.160Z,10.90
2019-04-30T06:00:40.294Z,11.00
2019-04-30T06:03:24.685Z,11.00
2019-04-30T06:06:04.943Z,11.10
2019-04-30T06:08:49.083Z,11.20
2019-04-30T06:11:40.403Z,11.30
2019-04-30T06:14:48.014Z,11.30
2019-04-30T06:17:13.565Z,11.40
2019-04-30T06:19:48.783Z,11.40
2019-04-30T06:22:31.252Z,11.50
2019-04-30T06:25:57.528Z,11.50
2019-04-30T06:28:34.766Z,11.60
2019-04-30T06:31:14.927Z,11.70
2019-04-30T06:33:54.825Z,11.80
2019-04-30T06:36:30.334Z,12.00
2019-04-30T06:39:02.975Z,12.30
2019-04-30T06:41:36.622Z,12.50
2019-04-30T06:44:09.708Z,12.60
2019-04-30T06:46:42.097Z,12.80
2019-04-30T06:49:15.273Z,12.80
2019-04-30T06:51:49.071Z,12.80
2019-04-30T06:54:22.474Z,12.80
2019-04-30T06:56:55.452Z,12.90
2019-04-30T06:59:29.857Z,13.00
2019-04-30T07:02:01.760Z,13.10
2019-04-30T07:04:33.667Z,13.10
2019-04-30T07:07:05.593Z,13.10
2019-04-30T07:09:58.640Z,13.00
2019-04-30T07:12:50.482Z,12.90
2019-04-30T07:15:23.376Z,12.90
2019-04-30T07:17:55.428Z,13.00
2019-04-30T07:20:29.149Z,13.10
2019-04-30T07:23:03.256Z,13.20
2019-04-30T07:25:35.989Z,13.50
2019-04-30T07:28:09.037Z,13.70
2019-04-30T07:30:42.236Z,13.70
2019-04-30T07:33:15.808Z,13.70
2019-04-30T07:35:49.855Z,13.80
2019-04-30T07:38:22.582Z,14.10
2019-04-30T07:40:59.128Z,14.30
2019-04-30T07:43:35.699Z,14.40
2019-04-30T07:46:12.923Z,14.50
2019-04-30T07:48:50.406Z,14.30
2019-04-30T07:51:23.710Z,14.10
2019-04-30T07:53:59.122Z,14.00
2019-04-30T07:59:11.312Z,13.80
2019-04-30T08:02:00.233Z,13.70
2019-04-30T08:04:36.124Z,13.60
2019-04-30T08:07:09.695Z,13.50
2019-04-30T08:09:38.340Z,13.80
2019-04-30T08:09:42.567Z,13.70
2019-04-30T08:12:22.282Z,13.90
2019-04-30T08:14:52.607Z,14.10
2019-04-30T08:17:30.528Z,14.10
2019-04-30T08:20:03.419Z,14.20
2019-04-30T08:22:35.955Z,14.30
2019-04-30T08:25:09.736Z,14.40
2019-04-30T08:27:43.625Z,14.30
2019-04-30T08:30:25.500Z,14.10
2019-04-30T08:32:53.438Z,14.00
2019-04-30T08:35:25.810Z,14.20
2019-04-30T08:38:00.739Z,14.40
2019-04-30T08:40:33.463Z,14.60
2019-04-30T08:43:05.411Z,14.40
2019-04-30T08:45:40.152Z,14.20
2019-04-30T08:48:12.699Z,14.00
2019-04-30T08:50:45.422Z,14.00
2019-04-30T08:53:29.531Z,14.10
2019-04-30T08:55:55.156Z,14.20
2019-04-30T08:58:34.618Z,14.20
2019-04-30T09:01:08.750Z,14.40
2019-04-30T09:03:45.114Z,14.70
2019-04-30T09:06:25.428Z,14.80
2019-04-30T09:09:18.883Z,14.70
2019-04-30T09:11:55.805Z,14.70
2019-04-30T09:14:35.213Z,14.90
2019-04-30T09:17:09.238Z,15.00
2019-04-30T09:19:43.805Z,15.10
2019-04-30T09:22:16.369Z,15.50
2019-04-30T09:24:49.724Z,16.30
2019-04-30T09:27:29.416Z,17.30
2019-04-30T09:30:01.747Z,17.80
2019-04-30T09:32:33.654Z,18.10
2019-04-30T09:35:05.410Z,18.30
2019-04-30T09:37:39.076Z,18.80
2019-04-30T09:40:18.284Z,19.10
2019-04-30T09:42:44.765Z,19.00
2019-04-30T09:45:15.966Z,18.80
2019-04-30T09:47:47.387Z,18.80
2019-04-30T09:50:18.966Z,19.00
2019-04-30T09:53:00.598Z,19.30
2019-04-30T09:55:32.381Z,19.20
2019-04-30T09:58:16.203Z,19.50
2019-04-30T10:00:39.355Z,19.40
2019-04-30T10:03:11.508Z,19.30
2019-04-30T10:05:45.709Z,19.90
2019-04-30T10:08:18.903Z,20.20
2019-04-30T10:11:06.118Z,20.30
2019-04-30T10:13:38.083Z,20.40
2019-04-30T10:16:29.618Z,20.70
2019-04-30T10:19:02.196Z,21.20
2019-04-30T10:21:34.289Z,21.50
2019-04-30T10:24:13.054Z,21.00
2019-04-30T10:26:41.371Z,20.40
2019-04-30T10:29:13.783Z,20.30
2019-04-30T10:31:45.965Z,20.60
2019-04-30T10:34:18.041Z,20.80
2019-04-30T10:36:50.883Z,20.60
2019-04-30T10:39:23.003Z,20.80
2019-04-30T10:41:55.173Z,21.60
2019-04-30T10:44:27.087Z,21.70
2019-04-30T10:46:59.406Z,22.00
2019-04-30T10:49:35.050Z,22.30
2019-04-30T10:52:09.958Z,22.40
2019-04-30T10:54:45.563Z,21.70
2019-04-30T10:57:24.036Z,21.80
2019-04-30T11:00:00.689Z,21.00
2019-04-30T11:02:33.129Z,21.00
2019-04-30T11:05:06.322Z,20.80
2019-04-30T11:07:43.640Z,19.90
2019-04-30T11:10:19.648Z,19.70
2019-04-30T11:12:52.122Z,20.30
2019-04-30T11:15:29.241Z,21.40
2019-04-30T11:18:02.429Z,21.90
2019-04-30T11:20:39.468Z,21.70
2019-04-30T11:23:14.700Z,21.10
2019-04-30T11:25:46.763Z,20.80
2019-04-30T11:28:25.312Z,21.10
2019-04-30T11:31:39.370Z,22.00
2019-04-30T11:34:16.123Z,21.80
2019-04-30T11:36:48.691Z,20.30
2019-04-30T11:39:23.804Z,19.70
2019-04-30T11:41:59.039Z,19.30
2019-04-30T11:44:35.270Z,19.10
2019-04-30T11:47:37.635Z,19.90
2019-04-30T11:50:13.773Z,20.40
2019-04-30T11:52:51.977Z,20.60
2019-04-30T11:55:29.173Z,20.40
2019-04-30T11:58:01.968Z,20.90
2019-04-30T12:00:36.911Z,21.10
2019-04-30T12:03:11.062Z,21.20
2019-04-30T12:05:42.707Z,20.90
2019-04-30T12:08:22.490Z,20.30
2019-04-30T12:11:10.021Z,20.10
2019-04-30T12:13:52.849Z,20.70
2019-04-30T12:16:24.661Z,21.60
2019-04-30T12:19:00.663Z,22.10
2019-04-30T12:21:34.187Z,23.00
2019-04-30T12:24:06.514Z,23.30
2019-04-30T12:26:38.998Z,23.90
2019-04-30T12:29:11.293Z,23.80
2019-04-30T12:31:43.505Z,23.30
2019-04-30T12:34:15.198Z,23.20
2019-04-30T12:36:47.347Z,23.50
2019-04-30T12:39:21.202Z,23.90
2019-04-30T12:41:53.677Z,24.00
2019-04-30T12:44:26.034Z,24.10
2019-04-30T12:46:59.091Z,23.60
2019-04-30T12:49:51.253Z,23.10
2019-04-30T12:52:49.482Z,22.70
2019-04-30T12:56:00.562Z,23.30
2019-04-30T12:58:36.002Z,23.40
2019-04-30T13:01:10.125Z,24.00
2019-04-30T13:03:55.749Z,23.50
2019-04-30T13:06:24.474Z,23.40
2019-04-30T13:09:00.423Z,22.70
2019-04-30T13:11:32.613Z,23.30
2019-04-30T13:14:05.815Z,23.90
2019-04-30T13:16:39.306Z,24.50
2019-04-30T13:19:12.563Z,24.70
2019-04-30T13:21:45.209Z,24.70
2019-04-30T13:24:16.659Z,25.20
2019-04-30T13:26:49.482Z,25.30
2019-04-30T13:29:30.486Z,24.60
2019-04-30T13:32:04.480Z,24.80
2019-04-30T13:34:44.620Z,25.10
2019-04-30T13:37:19.205Z,25.50
2019-04-30T13:40:15.945Z,25.10
2019-04-30T13:42:51.766Z,25.00
2019-04-30T13:45:24.156Z,24.60
2019-04-30T13:48:00.514Z,25.10
2019-04-30T13:50:39.489Z,25.20
2019-04-30T13:53:13.552Z,25.30
2019-04-30T13:55:46.588Z,25.30
2019-04-30T13:58:20.677Z,25.30
2019-04-30T14:00:53.180Z,25.20
2019-04-30T14:03:39.079Z,25.00
2019-04-30T14:06:14.592Z,25.00
2019-04-30T14:08:49.802Z,24.90
2019-04-30T14:11:24.063Z,24.90
2019-04-30T14:13:57.766Z,25.30
2019-04-30T14:16:33.591Z,25.00
2019-04-30T14:19:08.592Z,25.20
2019-04-30T14:21:44.581Z,25.50
2019-04-30T14:24:20.043Z,26.20
2019-04-30T14:26:54.860Z,26.20
2019-04-30T14:29:29.844Z,25.70
2019-04-30T14:32:02.481Z,25.60
2019-04-30T14:34:39.359Z,25.00
2019-04-30T14:37:13.906Z,24.60
2019-04-30T14:39:47.975Z,25.00
2019-04-30T14:42:21.525Z,25.40
2019-04-30T14:45:05.347Z,25.40
2019-04-30T14:48:02.324Z,24.60
2019-04-30T14:50:35.219Z,23.70
2019-04-30T14:53:13.804Z,23.50
2019-04-30T14:56:08.709Z,23.50
2019-04-30T14:59:00.979Z,23.80
2019-04-30T15:01:49.001Z,23.80
2019-04-30T15:04:21.255Z,23.70
2019-04-30T15:06:59.116Z,23.90
2019-04-30T15:09:33.867Z,23.40
2019-04-30T15:12:07.437Z,23.30
2019-04-30T15:14:41.052Z,23.70
2019-04-30T15:17:13.970Z,23.20
2019-04-30T15:19:49.777Z,23.10
2019-04-30T15:22:24.052Z,23.10
2019-04-30T15:24:59.478Z,22.90
2019-04-30T15:27:34.483Z,22.90
2019-04-30T15:30:09.660Z,23.40
2019-04-30T15:32:43.612Z,23.80
2019-04-30T15:35:16.757Z,24.10
2019-04-30T15:37:50.894Z,24.30
2019-04-30T15:40:24.006Z,24.60
2019-04-30T15:42:58.868Z,24.80
2019-04-30T15:45:31.462Z,24.30
2019-04-30T15:48:04.434Z,23.70
2019-04-30T15:50:39.250Z,22.90
2019-04-30T15:53:14.747Z,23.20
2019-04-30T15:55:49.612Z,22.90
2019-04-30T15:58:25.506Z,22.80
2019-04-30T16:00:59.455Z,22.70
2019-04-30T16:03:35.999Z,22.30
2019-04-30T16:06:10.365Z,22.10
2019-04-30T16:08:49.795Z,22.10
2019-04-30T16:11:44.614Z,22.00
2019-04-30T16:14:29.753Z,22.20
2019-04-30T16:17:12.015Z,22.20
2019-04-30T16:19:44.799Z,22.60
2019-04-30T16:22:20.616Z,22.80
2019-04-30T16:24:54.666Z,22.80
2019-04-30T16:27:27.332Z,23.10
2019-04-30T16:30:00.601Z,23.00
2019-04-30T16:32:34.382Z,22.10
2019-04-30T16:35:09.312Z,22.00
2019-04-30T16:37:44.320Z,22.20
2019-04-30T16:40:22.644Z,21.80
2019-04-30T16:42:57.166Z,21.50
2019-04-30T16:45:33.660Z,21.60
2019-04-30T16:48:07.232Z,21.30
2019-04-30T16:50:40.550Z,21.10
2019-04-30T16:53:14.364Z,20.80
2019-04-30T16:55:50.554Z,20.60
2019-04-30T16:59:12.989Z,20.70
2019-04-30T17:01:57.174Z,20.40
2019-04-30T17:04:34.242Z,20.30
2019-04-30T17:07:19.059Z,20.00
2019-04-30T17:10:01.185Z,20.20
2019-04-30T17:13:03.233Z,20.30
2019-04-30T17:15:41.971Z,20.00
2019-04-30T17:18:20.759Z,19.60
2019-04-30T17:21:03.793Z,19.30
2019-04-30T17:23:45.254Z,19.40
2019-04-30T17:26:25.117Z,18.60
2019-04-30T17:29:03.793Z,17.80
2019-04-30T17:31:48.463Z,17.50
2019-04-30T17:34:30.906Z,17.30
2019-04-30T17:37:06.466Z,16.90
2019-04-30T17:39:41.942Z,16.70
2019-04-30T17:42:17.075Z,16.50
2019-04-30T17:44:56.817Z,16.20
2019-04-30T17:47:29.030Z,16.00
2019-04-30T17:50:02.845Z,16.00
2019-04-30T17:52:37.327Z,15.90
2019-04-30T17:55:13.776Z,15.90
2019-04-30T17:57:48.685Z,15.80
2019-04-30T18:00:23.839Z,15.60
2019-04-30T18:02:57.874Z,15.50
2019-04-30T18:05:31.755Z,15.40
2019-04-30T18:08:08.073Z,15.30
2019-04-30T18:10:44.464Z,15.30
2019-04-30T18:13:19.072Z,15.30
2019-04-30T18:15:54.205Z,15.30
2019-04-30T18:18:38.592Z,15.10
2019-04-30T18:21:28.318Z,14.90
2019-04-30T18:24:53.113Z,14.70
2019-04-30T18:27:45.361Z,14.50
2019-04-30T18:30:21.116Z,14.30
2019-04-30T18:32:54.989Z,14.20
2019-04-30T18:35:29.762Z,14.10
2019-04-30T18:38:04.728Z,14.00
2019-04-30T18:40:43.403Z,13.90
2019-04-30T18:43:20.403Z,13.80
2019-04-30T18:45:54.476Z,13.70
2019-04-30T18:48:29.447Z,13.70
2019-04-30T18:51:18.980Z,13.60
2019-04-30T18:53:40.584Z,13.50
2019-04-30T18:56:14.891Z,13.40
2019-04-30T18:58:49.793Z,13.40
2019-04-30T19:01:23.996Z,13.30
2019-04-30T19:03:58.477Z,13.20
2019-04-30T19:06:33.674Z,13.10
2019-04-30T19:09:31.718Z,13.00
2019-04-30T19:12:29.154Z,13.00
2019-04-30T19:15:21.526Z,13.00
2019-04-30T19:18:15.241Z,12.90
2019-04-30T19:20:52.022Z,12.80
2019-04-30T19:23:29.019Z,12.80
2019-04-30T19:26:02.584Z,12.70
2019-04-30T19:28:36.393Z,12.60
2019-04-30T19:31:11.737Z,12.60
2019-04-30T19:34:04.618Z,12.50
2019-04-30T19:36:40.673Z,12.40
2019-04-30T19:39:19.520Z,12.40
2019-04-30T19:41:54.180Z,12.40
2019-04-30T19:44:29.379Z,12.40
2019-04-30T19:47:04.176Z,12.30
2019-04-30T19:49:55.593Z,12.20
2019-04-30T19:52:30.293Z,12.10
2019-04-30T19:55:22.431Z,12.10
2019-04-30T19:57:59.711Z,11.90
2019-04-30T20:00:33.089Z,11.90
2019-04-30T20:03:09.644Z,11.80
2019-04-30T20:05:43.965Z,11.80
2019-04-30T20:08:19.873Z,11.70
2019-04-30T20:10:54.978Z,11.50
2019-04-30T20:13:37.004Z,11.40
2019-04-30T20:16:09.623Z,11.30
2019-04-30T20:18:44.621Z,11.30
2019-04-30T20:21:28.324Z,11.30
2019-04-30T20:23:59.109Z,11.30
2019-04-30T20:26:35.090Z,11.10
2019-04-30T20:29:10.082Z,11.00
2019-04-30T20:31:48.752Z,11.00
2019-04-30T20:34:24.344Z,11.00
2019-04-30T20:37:00.326Z,10.90
2019-04-30T20:39:54.721Z,10.90
2019-04-30T20:42:36.126Z,10.90
2019-04-30T20:45:16.495Z,10.90
2019-04-30T20:47:52.130Z,10.90
2019-04-30T20:50:33.922Z,10.90
2019-04-30T20:53:11.816Z,10.90
2019-04-30T20:55:46.717Z,10.90
2019-04-30T20:58:22.885Z,10.90
2019-04-30T21:01:04.090Z,10.80
2019-04-30T21:03:35.308Z,10.70
2019-04-30T21:06:10.171Z,10.70
2019-04-30T21:08:44.541Z,10.60
2019-04-30T21:11:20.485Z,10.50
2019-04-30T21:13:54.736Z,10.50
2019-04-30T21:16:29.339Z,10.40
2019-04-30T21:19:05.071Z,10.30
2019-04-30T21:21:39.546Z,10.20
2019-04-30T21:24:15.891Z,10.10
2019-04-30T21:26:52.244Z,10.00
2019-04-30T21:29:29.488Z,9.80
2019-04-30T21:32:29.045Z,9.60
2019-04-30T21:35:24.739Z,9.50
2019-04-30T21:38:01.803Z,9.40
2019-04-30T21:40:39.316Z,9.50
2019-04-30T21:43:13.750Z,9.50
2019-04-30T21:45:49.370Z,9.50
2019-04-30T21:48:28.760Z,9.60
2019-04-30T21:51:05.728Z,9.60
2019-04-30T21:53:40.811Z,9.50
2019-04-30T21:56:23.650Z,9.50
2019-04-30T21:59:03.547Z,9.60
2019-04-30T22:01:38.948Z,9.70
2019-04-30T22:04:15.607Z,9.80
2019-04-30T22:06:50.083Z,9.80
2019-04-30T22:09:25.019Z,9.60
2019-04-30T22:12:00.207Z,9.40
2019-04-30T22:14:36.250Z,9.40
2019-04-30T22:17:11.105Z,9.20
2019-04-30T22:19:49.127Z,9.30
2019-04-30T22:22:25.315Z,9.30
2019-04-30T22:25:05.092Z,9.20
2019-04-30T22:27:41.900Z,9.20
2019-04-30T22:30:17.275Z,9.10
2019-04-30T22:32:51.450Z,9.00
2019-04-30T22:35:45.431Z,9.00
2019-04-30T22:38:23.823Z,8.90
2019-04-30T22:40:58.991Z,8.80
2019-04-30T22:43:35.571Z,8.70
2019-04-30T22:46:15.382Z,8.50
2019-04-30T22:48:50.956Z,8.40
2019-04-30T22:51:27.037Z,8.40
2019-04-30T22:54:02.378Z,8.50
2019-04-30T22:56:37.968Z,8.40
2019-04-30T22:59:13.988Z,8.40
2019-04-30T23:02:08.452Z,8.40
2019-04-30T23:04:45.788Z,8.50
2019-04-30T23:07:20.120Z,8.50
2019-04-30T23:09:56.639Z,8.50
2019-04-30T23:12:30.673Z,8.50
2019-04-30T23:15:05.096Z,8.40
2019-04-30T23:17:40.123Z,8.40
2019-04-30T23:20:13.724Z,8.30
2019-04-30T23:22:47.682Z,8.30
2019-04-30T23:25:26.411Z,8.30
2019-04-30T23:28:01.510Z,8.20
2019-04-30T23:30:35.829Z,8.10
2019-04-30T23:33:11.079Z,8.00
2019-04-30T23:35:48.522Z,7.90
2019-04-30T23:38:23.354Z,8.00
2019-04-30T23:40:58.769Z,8.00
2019-04-30T23:43:33.602Z,8.00
2019-04-30T23:46:08.738Z,7.90
2019-04-30T23:48:45.063Z,7.90
2019-04-30T23:51:20.634Z,7.80
2019-04-30T23:53:55.553Z,7.80
2019-04-30T23:56:30.373Z,7.70
2019-04-30T23:59:06.615Z,7.80
